Time;durP1;ratioP1;P1;durP2;ratioP2;P2;SDS_P1;SDS_P2;PMS_P1;PMS_P2;Temp;Humidity;BMP_temperature;BMP_pressure;BME280_temperature;BME280_humidity;BME280_pressure;Samples;Min_cycle;Max_cycle;Signal;HPM_P1;HPM_P2
2022/09/27 00:00:31;;;;;;;14.93;10.43;;;6.60;99.90;;;;;;5016123;28;20061;-80
2022/09/27 00:02:57;;;;;;;14.98;10.88;;;6.60;99.90;;;;;;5027512;28;20030;-81
2022/09/27 00:05:23;;;;;;;11.60;9.75;;;6.60;99.90;;;;;;5027423;28;20132;-80
2022/09/27 00:07:49;;;;;;;13.40;10.20;;;6.50;99.90;;;;;;5020399;28;20388;-80
2022/09/27 00:10:15;;;;;;;11.80;9.25;;;6.50;99.90;;;;;;5016442;28;20026;-81
2022/09/27 00:12:41;;;;;;;11.63;9.57;;;6.50;99.90;;;;;;5033916;28;20026;-81
2022/09/27 00:15:11;;;;;;;12.77;9.20;;;6.50;99.90;;;;;;5020986;28;20033;-81
2022/09/27 00:17:40;;;;;;;16.38;10.77;;;6.50;99.90;;;;;;5033924;28;20114;-81
2022/09/27 00:20:07;;;;;;;11.25;9.60;;;6.50;99.90;;;;;;5034443;28;20029;-81
2022/09/27 00:22:33;;;;;;;13.45;9.70;;;6.40;99.90;;;;;;5048588;28;20052;-82
2022/09/27 00:24:59;;;;;;;11.70;9.23;;;6.40;99.90;;;;;;5042673;28;20471;-82
2022/09/27 00:27:26;;;;;;;12.52;9.55;;;6.40;99.90;;;;;;5032953;28;20048;-81
2022/09/27 00:29:53;;;;;;;11.30;8.70;;;6.40;99.90;;;;;;5014833;28;20075;-84
2022/09/27 00:32:18;;;;;;;17.48;11.25;;;6.40;99.90;;;;;;5032703;28;20105;-83
2022/09/27 00:34:44;;;;;;;14.57;10.52;;;6.40;99.90;;;;;;5031249;28;20089;-83
2022/09/27 00:37:10;;;;;;;13.65;9.77;;;6.40;99.90;;;;;;5032566;28;20063;-83
2022/09/27 00:39:38;;;;;;;12.43;10.25;;;6.40;99.90;;;;;;5014936;28;20021;-83
2022/09/27 00:42:05;;;;;;;12.15;9.27;;;6.40;99.90;;;;;;5032627;28;20369;-83
2022/09/27 00:44:37;;;;;;;15.77;10.07;;;6.40;99.90;;;;;;5032688;28;20038;-83
2022/09/27 00:47:20;;;;;;;12.15;8.18;;;6.30;99.90;;;;;;5032933;28;20022;-83
2022/09/27 00:50:02;;;;;;;12.85;9.60;;;6.30;99.90;;;;;;5022922;28;20032;-83
2022/09/27 00:52:47;;;;;;;13.80;9.95;;;6.30;99.90;;;;;;5030622;28;20386;-84
2022/09/27 00:55:32;;;;;;;17.63;10.77;;;6.30;99.90;;;;;;5015379;28;20033;-83
2022/09/27 00:57:58;;;;;;;14.10;9.82;;;6.30;99.90;;;;;;5041506;28;20018;-84
2022/09/27 01:00:24;;;;;;;15.90;10.52;;;6.30;99.90;;;;;;5043227;28;20069;-82
2022/09/27 01:02:53;;;;;;;14.23;10.35;;;6.20;99.90;;;;;;5038845;28;20040;-83
2022/09/27 01:05:23;;;;;;;14.13;9.52;;;6.20;99.90;;;;;;5033283;28;20034;-82
2022/09/27 01:07:49;;;;;;;16.38;10.32;;;6.20;99.90;;;;;;5032796;28;20017;-83
2022/09/27 01:10:16;;;;;;;15.82;10.93;;;6.20;99.90;;;;;;5033318;28;20052;-82
2022/09/27 01:13:05;;;;;;;14.02;9.00;;;6.20;99.90;;;;;;5032660;28;20035;-82
2022/09/27 01:16:00;;;;;;;14.82;10.48;;;6.20;99.90;;;;;;5032971;28;20024;-82
2022/09/27 01:19:10;;;;;;;13.45;10.23;;;6.20;99.90;;;;;;5033256;28;20378;-82
2022/09/27 01:21:59;;;;;;;15.75;10.45;;;6.20;99.90;;;;;;5008040;28;20378;-82
2022/09/27 01:25:12;;;;;;;14.63;9.93;;;6.20;99.90;;;;;;5032844;28;20037;-83
2022/09/27 01:28:09;;;;;;;13.93;9.52;;;6.20;99.90;;;;;;4985118;28;20040;-81
2022/09/27 01:30:56;;;;;;;13.68;9.48;;;6.10;99.90;;;;;;5028090;28;20037;-81
2022/09/27 01:33:42;;;;;;;13.98;10.23;;;6.10;99.90;;;;;;5028964;28;20084;-82
2022/09/27 01:36:42;;;;;;;16.55;10.30;;;6.10;99.90;;;;;;5031131;28;20029;-82
2022/09/27 01:39:31;;;;;;;13.38;9.93;;;6.10;99.90;;;;;;5020113;28;20390;-83
2022/09/27 01:42:21;;;;;;;13.65;10.75;;;6.00;99.90;;;;;;5032810;28;20021;-82
2022/09/27 01:44:58;;;;;;;15.75;8.60;;;6.00;99.90;;;;;;5035656;28;20061;-82
2022/09/27 01:47:32;;;;;;;15.13;9.98;;;6.00;99.90;;;;;;5036686;28;20022;-82
2022/09/27 01:50:15;;;;;;;12.85;9.85;;;6.00;99.90;;;;;;5034023;28;20029;-83
2022/09/27 01:53:01;;;;;;;12.48;9.13;;;6.00;99.90;;;;;;5034516;28;20021;-81
2022/09/27 01:55:33;;;;;;;12.45;9.43;;;6.00;99.90;;;;;;5039796;28;20033;-82
2022/09/27 01:58:11;;;;;;;12.45;9.68;;;6.00;99.90;;;;;;5043480;28;20104;-82
2022/09/27 02:00:39;;;;;;;13.13;9.70;;;6.00;99.90;;;;;;5032218;28;20068;-82
2022/09/27 02:03:13;;;;;;;14.48;9.82;;;6.00;99.90;;;;;;5035912;28;20421;-84
2022/09/27 02:05:53;;;;;;;18.85;11.52;;;6.00;99.90;;;;;;5036245;28;20445;-82
2022/09/27 02:08:40;;;;;;;11.80;9.63;;;5.90;99.90;;;;;;5039926;28;20072;-83
2022/09/27 02:11:10;;;;;;;16.17;10.45;;;5.90;99.90;;;;;;5036756;28;20029;-83
2022/09/27 02:14:17;;;;;;;20.05;11.88;;;5.90;99.90;;;;;;5018048;28;20117;-82
2022/09/27 02:16:43;;;;;;;;;;;5.90;99.90;;;;;;5002487;28;20045;-84
2022/09/27 02:19:18;;;;;;;17.60;11.07;;;6.00;99.90;;;;;;5019860;28;19905;-82
2022/09/27 02:21:52;;;;;;;13.48;9.10;;;5.90;99.90;;;;;;5036371;28;20060;-83
2022/09/27 02:24:23;;;;;;;13.65;9.85;;;5.90;99.90;;;;;;5036210;28;20142;-83
2022/09/27 02:27:00;;;;;;;16.38;10.82;;;5.90;99.90;;;;;;5022589;28;20017;-82
2022/09/27 02:29:53;;;;;;;14.90;9.80;;;5.90;99.90;;;;;;5035392;28;20084;-81
2022/09/27 02:32:19;;;;;;;14.02;10.63;;;5.90;99.90;;;;;;5007573;28;20103;-82
2022/09/27 02:34:47;;;;;;;16.42;11.40;;;5.90;99.90;;;;;;5035415;28;20033;-82
2022/09/27 02:37:13;;;;;;;14.43;10.63;;;5.90;99.90;;;;;;5036942;28;20037;-82
2022/09/27 02:39:39;;;;;;;15.65;12.50;;;5.90;99.90;;;;;;5018749;28;20022;-82
2022/09/27 02:42:06;;;;;;;20.55;10.73;;;5.80;99.90;;;;;;5038796;28;20032;-82
2022/09/27 02:44:32;;;;;;;15.50;11.48;;;5.90;99.90;;;;;;5038344;28;20446;-80
2022/09/27 02:47:16;;;;;;;18.45;11.30;;;5.90;99.90;;;;;;5037667;28;20032;-82
2022/09/27 02:50:00;;;;;;;16.48;11.00;;;5.90;99.90;;;;;;5044268;28;20109;-82
2022/09/27 02:52:34;;;;;;;15.13;10.60;;;5.90;99.90;;;;;;5036084;28;20447;-83
2022/09/27 02:55:07;;;;;;;12.45;9.60;;;5.90;99.90;;;;;;5036011;28;20036;-80
2022/09/27 02:57:58;;;;;;;14.05;9.88;;;5.80;99.90;;;;;;5035843;28;20018;-82
2022/09/27 03:00:34;;;;;;;15.40;10.95;;;5.80;99.90;;;;;;5017692;28;20025;-83
2022/09/27 03:03:09;;;;;;;14.63;11.10;;;5.80;99.90;;;;;;5034307;28;20022;-82
2022/09/27 03:06:01;;;;;;;15.05;11.63;;;5.80;99.90;;;;;;5035215;28;20460;-81
2022/09/27 03:08:27;;;;;;;13.88;10.77;;;5.80;99.90;;;;;;5017523;28;20117;-81
2022/09/27 03:10:53;;;;;;;20.58;12.27;;;5.80;99.90;;;;;;5033265;28;20140;-82
2022/09/27 03:13:19;;;;;;;13.98;11.02;;;5.80;99.90;;;;;;5034531;28;20022;-82
2022/09/27 03:15:44;;;;;;;17.13;10.25;;;5.70;99.90;;;;;;5035427;28;20022;-83
2022/09/27 03:18:10;;;;;;;18.80;9.27;;;5.70;99.90;;;;;;5035051;28;20073;-82
2022/09/27 03:20:36;;;;;;;18.95;11.00;;;5.70;99.90;;;;;;5012238;28;20021;-81
2022/09/27 03:23:02;;;;;;;13.93;10.35;;;5.70;99.90;;;;;;5031673;28;20025;-82
2022/09/27 03:25:28;;;;;;;16.27;11.60;;;5.70;99.90;;;;;;5034452;28;20030;-82
2022/09/27 03:27:53;;;;;;;14.95;12.15;;;5.70;99.90;;;;;;5036677;28;20072;-81
2022/09/27 03:30:19;;;;;;;18.90;12.68;;;5.70;99.90;;;;;;5027236;28;20557;-81
2022/09/27 03:32:45;;;;;;;13.15;9.85;;;5.70;99.90;;;;;;5049529;28;20025;-82
2022/09/27 03:35:12;;;;;;;20.35;12.32;;;5.70;99.90;;;;;;5034984;28;20026;-81
2022/09/27 03:37:39;;;;;;;16.13;10.95;;;5.70;99.90;;;;;;5034694;28;20048;-81
2022/09/27 03:40:06;;;;;;;17.25;11.85;;;5.70;99.90;;;;;;5034447;28;20020;-80
2022/09/27 03:42:33;;;;;;;14.90;10.90;;;5.80;99.90;;;;;;5034812;28;20033;-81
2022/09/27 03:44:58;;;;;;;19.42;11.68;;;5.80;99.90;;;;;;5034200;28;20510;-80
2022/09/27 03:47:24;;;;;;;14.20;10.68;;;5.80;99.90;;;;;;5015973;28;20056;-81
2022/09/27 03:49:50;;;;;;;18.30;11.85;;;5.90;99.90;;;;;;5034121;28;20026;-82
2022/09/27 03:52:19;;;;;;;18.75;11.50;;;5.80;99.90;;;;;;5034508;28;20024;-82
2022/09/27 03:54:45;;;;;;;20.30;12.45;;;5.90;99.90;;;;;;5021846;28;20047;-82
2022/09/27 03:57:11;;;;;;;16.73;12.30;;;5.90;99.90;;;;;;5018589;28;20441;-83
2022/09/27 03:59:37;;;;;;;19.25;13.30;;;5.90;99.90;;;;;;5033674;28;20017;-82
2022/09/27 04:02:03;;;;;;;13.85;10.50;;;5.90;99.90;;;;;;5015763;28;20037;-82
2022/09/27 04:04:28;;;;;;;19.92;11.82;;;5.90;99.90;;;;;;5033317;28;20104;-81
2022/09/27 04:06:56;;;;;;;18.60;12.32;;;5.90;99.90;;;;;;5033346;28;20044;-82
2022/09/27 04:09:22;;;;;;;17.45;12.45;;;6.00;99.90;;;;;;5033293;28;20025;-82
2022/09/27 04:11:48;;;;;;;18.80;12.98;;;6.20;99.90;;;;;;5033434;28;20032;-83
2022/09/27 04:14:13;;;;;;;14.00;11.13;;;6.20;99.90;;;;;;5033566;28;20080;-82
2022/09/27 04:16:39;;;;;;;15.48;11.38;;;6.20;99.90;;;;;;5033690;28;20049;-83
2022/09/27 04:19:06;;;;;;;18.67;12.02;;;6.30;99.90;;;;;;5033229;28;20117;-81
2022/09/27 04:21:33;;;;;;;17.90;13.57;;;6.30;99.90;;;;;;5033208;28;20025;-82
2022/09/27 04:23:59;;;;;;;18.47;12.70;;;6.20;99.90;;;;;;5032634;28;20025;-83
2022/09/27 04:26:25;;;;;;;18.05;11.10;;;6.20;99.90;;;;;;5014660;28;20021;-82
2022/09/27 04:28:51;;;;;;;18.80;13.00;;;6.20;99.90;;;;;;5024334;28;20033;-82
2022/09/27 04:31:18;;;;;;;15.30;11.15;;;6.20;99.90;;;;;;5033267;28;20028;-82
2022/09/27 04:33:47;;;;;;;18.58;12.27;;;6.20;99.90;;;;;;5016304;28;20029;-82
2022/09/27 04:36:27;;;;;;;13.50;10.45;;;6.20;99.90;;;;;;5039288;28;20245;-81
2022/09/27 04:38:57;;;;;;;15.82;11.25;;;6.30;99.90;;;;;;5040546;28;20107;-82
2022/09/27 04:41:25;;;;;;;13.10;10.70;;;6.30;99.90;;;;;;5032785;28;20052;-81
2022/09/27 04:43:51;;;;;;;17.88;12.75;;;6.20;99.90;;;;;;5033042;28;20045;-81
2022/09/27 04:46:18;;;;;;;18.92;12.70;;;6.30;99.90;;;;;;5032584;28;20120;-82
2022/09/27 04:48:44;;;;;;;16.13;11.70;;;6.30;99.90;;;;;;5027755;28;20033;-82
2022/09/27 04:51:10;;;;;;;15.73;11.98;;;6.30;99.90;;;;;;5024166;28;20033;-83
2022/09/27 04:53:36;;;;;;;14.68;12.10;;;6.40;99.90;;;;;;5033638;28;20021;-83
2022/09/27 04:56:05;;;;;;;16.20;11.07;;;6.40;99.90;;;;;;5031356;28;20026;-82
2022/09/27 04:58:33;;;;;;;19.55;11.82;;;6.50;99.90;;;;;;5018835;28;20072;-83
2022/09/27 05:00:59;;;;;;;;;;;6.60;99.90;;;;;;5034670;28;20022;-84
2022/09/27 05:03:25;;;;;;;15.15;10.93;;;6.70;99.90;;;;;;5038405;28;19912;-84
2022/09/27 05:05:51;;;;;;;14.73;11.38;;;6.70;99.90;;;;;;5012895;28;20021;-85
2022/09/27 05:08:17;;;;;;;16.52;11.73;;;6.80;99.90;;;;;;5046148;28;20040;-85
2022/09/27 05:10:43;;;;;;;15.55;11.15;;;6.90;99.90;;;;;;5032883;28;20060;-83
2022/09/27 05:13:09;;;;;;;14.95;10.15;;;7.20;99.90;;;;;;5032344;28;20025;-82
2022/09/27 05:15:35;;;;;;;15.13;10.05;;;7.50;99.90;;;;;;5032942;28;20021;-82
2022/09/27 05:18:01;;;;;;;13.38;10.00;;;7.70;99.90;;;;;;5032014;28;20020;-83
2022/09/27 05:20:27;;;;;;;13.35;9.82;;;7.90;99.90;;;;;;5031828;28;20683;-83
2022/09/27 05:22:53;;;;;;;14.35;9.93;;;8.10;99.90;;;;;;5031982;28;20025;-83
2022/09/27 05:25:19;;;;;;;14.50;10.00;;;8.30;99.90;;;;;;5031823;28;20104;-83
2022/09/27 05:27:44;;;;;;;12.05;9.65;;;8.30;99.90;;;;;;5031931;28;20108;-83
2022/09/27 05:30:11;;;;;;;14.07;9.75;;;8.40;99.90;;;;;;5032572;28;20483;-84
2022/09/27 05:32:42;;;;;;;15.65;9.70;;;8.50;99.90;;;;;;5032444;28;20071;-82
2022/09/27 05:35:08;;;;;;;11.35;9.43;;;8.60;99.90;;;;;;5033050;28;20099;-83
2022/09/27 05:37:34;;;;;;;13.10;10.13;;;8.70;99.90;;;;;;5003844;28;20029;-83
2022/09/27 05:40:00;;;;;;;14.65;9.95;;;8.70;99.90;;;;;;5027965;28;20022;-84
2022/09/27 05:42:26;;;;;;;11.38;9.15;;;8.60;99.90;;;;;;5033251;28;20078;-84
2022/09/27 05:44:52;;;;;;;12.70;10.52;;;8.60;99.90;;;;;;5032385;28;20050;-82
2022/09/27 05:47:18;;;;;;;15.80;9.98;;;8.70;99.90;;;;;;5034283;28;20013;-84
2022/09/27 05:49:44;;;;;;;13.27;10.02;;;8.80;99.90;;;;;;5032309;28;20026;-84
2022/09/27 05:52:10;;;;;;;11.85;10.35;;;8.80;99.90;;;;;;5033190;28;20036;-86
2022/09/27 05:54:35;;;;;;;17.17;11.60;;;8.80;99.90;;;;;;5034219;28;20022;-83
2022/09/27 05:57:01;;;;;;;15.00;11.07;;;8.70;99.90;;;;;;5033074;28;20036;-84
2022/09/27 05:59:27;;;;;;;13.25;10.30;;;8.70;99.90;;;;;;5023537;28;20018;-84
2022/09/27 06:01:53;;;;;;;13.23;10.52;;;8.70;99.90;;;;;;5032459;28;20075;-82
2022/09/27 06:04:20;;;;;;;16.67;12.85;;;8.90;99.90;;;;;;5014213;28;20038;-83
2022/09/27 06:06:46;;;;;;;16.45;11.65;;;9.20;99.90;;;;;;5033478;28;20121;-84
2022/09/27 06:09:14;;;;;;;16.15;12.13;;;9.40;99.90;;;;;;5032456;28;20435;-84
2022/09/27 06:11:44;;;;;;;17.45;14.40;;;9.60;99.90;;;;;;5032254;28;20017;-84
2022/09/27 06:14:10;;;;;;;21.35;13.52;;;9.80;99.90;;;;;;5033261;28;20022;-84
2022/09/27 06:16:36;;;;;;;16.33;12.77;;;9.90;99.90;;;;;;5026016;28;20037;-84
2022/09/27 06:19:03;;;;;;;14.10;11.60;;;9.90;99.90;;;;;;5027518;28;20255;-84
2022/09/27 06:21:30;;;;;;;17.25;12.35;;;9.80;99.90;;;;;;5032040;28;20045;-86
2022/09/27 06:24:00;;;;;;;17.67;12.57;;;9.80;99.90;;;;;;5038640;28;20075;-85
2022/09/27 06:26:26;;;;;;;18.83;12.65;;;9.70;99.90;;;;;;5040382;28;20486;-85
2022/09/27 06:28:53;;;;;;;17.83;12.77;;;9.70;99.90;;;;;;5044642;28;20030;-83
2022/09/27 06:31:20;;;;;;;19.67;12.27;;;9.90;99.90;;;;;;5033747;28;20021;-85
2022/09/27 06:33:47;;;;;;;18.07;13.17;;;10.10;99.90;;;;;;5033459;28;20029;-84
2022/09/27 06:36:13;;;;;;;13.60;11.60;;;10.20;99.90;;;;;;5032802;28;20310;-84
2022/09/27 06:38:39;;;;;;;15.50;12.13;;;10.20;99.90;;;;;;5045091;28;20021;-85
2022/09/27 06:41:05;;;;;;;14.75;10.38;;;10.20;99.90;;;;;;5051947;28;20038;-86
2022/09/27 06:43:33;;;;;;;14.20;10.63;;;10.30;99.90;;;;;;5040803;28;20027;-83
2022/09/27 06:46:05;;;;;;;16.33;12.70;;;10.40;99.90;;;;;;5033648;28;20045;-85
2022/09/27 06:48:32;;;;;;;21.85;14.85;;;10.40;99.90;;;;;;5031236;28;20076;-80
2022/09/27 06:50:58;;;;;;;22.73;14.43;;;10.50;99.90;;;;;;5035142;28;20045;-83
2022/09/27 06:53:25;;;;;;;21.38;12.60;;;10.50;99.90;;;;;;5042498;28;20440;-83
2022/09/27 06:55:51;;;;;;;23.35;13.88;;;10.60;99.90;;;;;;5031535;28;20041;-81
2022/09/27 07:01:03;;;;;;;23.80;15.68;;;11.00;99.90;;;;;;5047922;28;20025;-83
2022/09/27 07:03:34;;;;;;;17.35;13.05;;;11.10;99.90;;;;;;5026750;28;20045;-82
2022/09/27 07:06:02;;;;;;;18.00;12.70;;;11.40;99.90;;;;;;5021275;28;20128;-84
2022/09/27 07:08:28;;;;;;;16.25;11.20;;;11.40;99.90;;;;;;5019852;28;20080;-84
2022/09/27 07:11:03;;;;;;;16.95;13.27;;;11.30;99.90;;;;;;5034880;28;20013;-84
2022/09/27 07:13:31;;;;;;;15.07;12.93;;;11.30;99.90;;;;;;5022083;28;20080;-83
2022/09/27 07:15:57;;;;;;;23.35;14.90;;;11.60;99.90;;;;;;5026984;28;20105;-84
2022/09/27 07:18:23;;;;;;;15.15;13.02;;;11.80;99.90;;;;;;5039079;28;20087;-83
2022/09/27 07:20:49;;;;;;;14.18;10.02;;;12.00;99.60;;;;;;5038091;28;20052;-83
2022/09/27 07:23:16;;;;;;;12.40;9.07;;;13.20;99.60;;;;;;5039051;28;20021;-82
2022/09/27 07:25:42;;;;;;;12.07;8.68;;;15.00;96.70;;;;;;5020584;28;20029;-85
2022/09/27 07:28:14;;;;;;;10.75;8.50;;;16.00;91.30;;;;;;5020462;28;20052;-83
2022/09/27 07:30:40;;;;;;;11.77;9.13;;;16.60;86.20;;;;;;5022421;28;20100;-83
2022/09/27 07:33:07;;;;;;;13.53;9.60;;;16.80;83.90;;;;;;5020273;28;20025;-83
2022/09/27 07:35:35;;;;;;;15.88;10.43;;;17.70;83.50;;;;;;5039222;28;20644;-84
2022/09/27 07:38:02;;;;;;;14.82;12.82;;;18.80;76.50;;;;;;5026856;28;20396;-84
2022/09/27 07:40:28;;;;;;;15.38;13.88;;;19.00;72.40;;;;;;5014845;28;20033;-83
2022/09/27 07:42:58;;;;;;;15.25;12.07;;;19.50;71.30;;;;;;5021699;28;20120;-83
2022/09/27 07:45:24;;;;;;;16.75;11.80;;;20.70;67.20;;;;;;5038482;28;20081;-83
2022/09/27 07:47:51;;;;;;;14.90;13.43;;;20.30;63.80;;;;;;5039576;28;20044;-85
2022/09/27 07:50:17;;;;;;;13.50;12.13;;;19.80;65.40;;;;;;5037393;28;20044;-84
2022/09/27 07:52:45;;;;;;;16.38;13.15;;;19.10;65.10;;;;;;5037956;28;20025;-85
2022/09/27 07:55:12;;;;;;;16.02;12.88;;;18.30;66.80;;;;;;5020793;28;20026;-85
2022/09/27 07:57:40;;;;;;;19.73;15.02;;;17.90;68.60;;;;;;5038602;28;20049;-84
2022/09/27 08:00:09;;;;;;;12.60;11.27;;;18.30;69.10;;;;;;5023046;28;20029;-82
2022/09/27 08:02:35;;;;;;;10.60;9.45;;;19.60;65.90;;;;;;5040863;28;20018;-83
2022/09/27 08:05:02;;;;;;;14.93;12.05;;;21.10;61.40;;;;;;5038734;28;20029;-83
2022/09/27 08:07:28;;;;;;;14.10;10.32;;;22.10;57.00;;;;;;5020607;28;20116;-84
2022/09/27 08:09:55;;;;;;;20.33;12.13;;;22.80;55.10;;;;;;5039304;28;20453;-84
2022/09/27 08:12:21;;;;;;;15.05;11.25;;;23.60;53.50;;;;;;5039164;28;20040;-84
2022/09/27 08:14:47;;;;;;;14.63;11.50;;;24.00;52.10;;;;;;5036640;28;20048;-83
2022/09/27 08:17:13;;;;;;;15.53;12.57;;;23.50;51.90;;;;;;5050669;28;20441;-84
2022/09/27 08:19:39;;;;;;;16.70;12.07;;;23.20;52.30;;;;;;5052654;28;20020;-83
2022/09/27 08:22:06;;;;;;;12.18;7.88;;;23.00;52.40;;;;;;5020205;28;20022;-83
2022/09/27 08:24:32;;;;;;;5.93;5.32;;;22.40;51.60;;;;;;5038982;28;20018;-84
2022/09/27 08:26:58;;;;;;;9.50;5.93;;;21.60;50.40;;;;;;5038915;28;20116;-83
2022/09/27 08:29:24;;;;;;;8.63;7.72;;;21.00;52.50;;;;;;5037897;28;20021;-85
2022/09/27 08:31:52;;;;;;;8.40;6.95;;;21.40;52.80;;;;;;5036598;28;20025;-83
2022/09/27 08:34:21;;;;;;;17.92;8.52;;;22.50;51.90;;;;;;5038893;28;20383;-83
2022/09/27 08:36:47;;;;;;;12.50;7.95;;;23.10;49.60;;;;;;5039694;28;20661;-84
2022/09/27 08:39:14;;;;;;;12.30;8.80;;;24.10;49.30;;;;;;5019632;28;20044;-84
2022/09/27 08:41:55;;;;;;;14.77;8.17;;;24.40;46.80;;;;;;5036460;28;20037;-84
2022/09/27 08:44:47;;;;;;;9.68;5.53;;;24.60;47.80;;;;;;5036278;28;20122;-82
2022/09/27 08:47:28;;;;;;;6.18;5.43;;;24.90;47.00;;;;;;5028958;28;20044;-84
2022/09/27 08:50:21;;;;;;;10.02;6.40;;;25.40;46.40;;;;;;5038811;28;20017;-84
2022/09/27 08:53:13;;;;;;;6.57;5.35;;;25.90;45.00;;;;;;5038131;28;20028;-85
2022/09/27 08:55:49;;;;;;;10.00;6.28;;;25.20;44.90;;;;;;5039243;28;20040;-84
2022/09/27 08:58:27;;;;;;;12.73;7.03;;;23.70;45.50;;;;;;5040477;28;20033;-84
2022/09/27 09:00:56;;;;;;;10.82;6.13;;;21.90;48.50;;;;;;5038648;28;20029;-84
2022/09/27 09:03:27;;;;;;;10.55;6.95;;;20.50;50.50;;;;;;5020761;28;20026;-84
2022/09/27 09:06:10;;;;;;;11.27;7.00;;;19.30;52.90;;;;;;5040054;28;20509;-86
2022/09/27 09:09:02;;;;;;;11.50;7.93;;;18.20;55.70;;;;;;5038241;28;20025;-85
2022/09/27 09:14:25;;;;;;;20.10;11.32;;;17.10;59.60;;;;;;5039972;28;20045;-82
2022/09/27 09:17:48;;;;;;;16.73;10.05;;;16.60;61.20;;;;;;5029033;28;20101;-86
2022/09/27 09:20:25;;;;;;;12.70;8.98;;;16.30;62.40;;;;;;4987401;28;20031;-86
2022/09/27 09:23:22;;;;;;;14.77;9.30;;;16.50;63.70;;;;;;4987033;28;20068;-83
2022/09/27 09:26:16;;;;;;;11.77;7.93;;;17.30;63.10;;;;;;5034622;28;20334;-84
2022/09/27 09:28:51;;;;;;;14.18;7.97;;;18.10;60.50;;;;;;5032835;28;20017;-83
2022/09/27 09:31:54;;;;;;;12.77;6.97;;;19.10;58.70;;;;;;5023517;28;20040;-84
2022/09/27 09:34:42;;;;;;;11.25;7.43;;;21.20;56.40;;;;;;5027208;28;20402;-84
2022/09/27 09:37:37;;;;;;;14.55;7.20;;;22.60;51.90;;;;;;5040836;28;20033;-84
2022/09/27 09:40:34;;;;;;;12.30;6.45;;;23.50;51.50;;;;;;5018797;28;20125;-84
2022/09/27 09:43:44;;;;;;;8.27;6.75;;;25.20;49.10;;;;;;5042928;28;20030;-84
2022/09/27 09:46:24;;;;;;;17.73;10.00;;;24.10;46.80;;;;;;4961856;29;20056;-83
2022/09/27 09:49:22;;;;;;;12.52;10.55;;;21.60;48.90;;;;;;4966321;29;20038;-84
2022/09/27 09:51:54;;;;;;;14.77;9.52;;;19.50;53.30;;;;;;5030482;28;20048;-84
2022/09/27 09:54:36;;;;;;;9.68;8.27;;;18.20;56.40;;;;;;5045385;28;20029;-83
2022/09/27 09:57:17;;;;;;;12.07;7.85;;;17.40;58.30;;;;;;5054823;28;20029;-84
2022/09/27 10:00:01;;;;;;;9.65;6.60;;;17.30;60.00;;;;;;5028136;28;20033;-85
2022/09/27 10:02:38;;;;;;;11.88;7.80;;;17.70;58.90;;;;;;5041631;28;20009;-83
2022/09/27 10:05:06;;;;;;;9.13;7.03;;;18.30;59.20;;;;;;5041414;28;20049;-83
2022/09/27 10:07:37;;;;;;;10.68;7.00;;;19.00;57.30;;;;;;5044497;28;20056;-85
2022/09/27 10:10:06;;;;;;;10.07;7.68;;;19.10;56.10;;;;;;5050020;28;20029;-84
2022/09/27 10:12:34;;;;;;;8.65;7.43;;;18.80;55.70;;;;;;5037229;28;20052;-83
2022/09/27 10:15:04;;;;;;;7.95;7.20;;;18.00;57.70;;;;;;5033448;28;20030;-84
2022/09/27 10:17:45;;;;;;;9.15;5.93;;;17.20;59.60;;;;;;5010139;28;20033;-85
2022/09/27 10:20:45;;;;;;;9.15;6.00;;;16.50;61.00;;;;;;5033079;28;20028;-85
2022/09/27 10:23:21;;;;;;;8.73;5.65;;;15.80;61.80;;;;;;5047649;28;20081;-86
2022/09/27 10:25:49;;;;;;;8.70;5.93;;;15.20;63.80;;;;;;5035654;28;20113;-83
2022/09/27 10:28:35;;;;;;;10.50;6.20;;;15.00;65.40;;;;;;5023873;28;20017;-83
2022/09/27 10:31:07;;;;;;;8.00;5.10;;;14.60;65.90;;;;;;5048144;28;20564;-83
2022/09/27 10:33:36;;;;;;;8.40;4.95;;;14.30;66.10;;;;;;5017934;28;20022;-83
2022/09/27 10:36:03;;;;;;;8.25;5.10;;;14.30;67.40;;;;;;5038608;28;20041;-83
2022/09/27 10:38:36;;;;;;;9.13;4.95;;;14.20;67.40;;;;;;5045578;28;20080;-84
2022/09/27 10:41:24;;;;;;;6.88;5.00;;;14.20;67.90;;;;;;5040781;28;20029;-84
2022/09/27 10:43:50;;;;;;;7.80;5.43;;;14.20;67.00;;;;;;5040573;28;20021;-84
2022/09/27 10:46:25;;;;;;;12.65;5.72;;;14.10;67.50;;;;;;5039331;28;20129;-84
2022/09/27 10:49:12;;;;;;;5.88;4.85;;;14.20;68.30;;;;;;5049146;28;20042;-83
2022/09/27 10:51:38;;;;;;;7.95;5.63;;;14.30;67.80;;;;;;5031812;28;20033;-85
2022/09/27 10:54:05;;;;;;;9.07;5.10;;;14.20;68.40;;;;;;5050220;28;20090;-83
2022/09/27 10:56:33;;;;;;;11.53;4.77;;;14.20;68.30;;;;;;5049280;28;20037;-84
2022/09/27 10:59:01;;;;;;;6.95;4.28;;;14.20;69.10;;;;;;5022663;28;20021;-84
2022/09/27 11:01:44;;;;;;;7.97;4.32;;;14.20;68.50;;;;;;5020976;28;20028;-86
2022/09/27 11:04:37;;;;;;;8.25;4.30;;;14.30;68.00;;;;;;5038609;28;20040;-85
2022/09/27 11:07:14;;;;;;;5.20;4.32;;;14.20;68.30;;;;;;5038139;28;20037;-84
2022/09/27 11:10:01;;;;;;;7.32;5.45;;;14.00;68.10;;;;;;5038780;28;20067;-82
2022/09/27 11:12:30;;;;;;;12.02;5.03;;;13.80;69.00;;;;;;5040089;28;20025;-85
2022/09/27 11:15:01;;;;;;;8.57;5.13;;;13.70;69.70;;;;;;5033369;28;20038;-84
2022/09/27 11:17:34;;;;;;;10.52;3.95;;;13.70;70.40;;;;;;5015488;28;20114;-84
2022/09/27 11:20:30;;;;;;;6.90;3.53;;;13.80;69.70;;;;;;5007552;28;20147;-83
2022/09/27 11:23:22;;;;;;;3.35;2.30;;;13.80;67.80;;;;;;5028858;28;20037;-83
2022/09/27 11:26:20;;;;;;;10.80;3.53;;;13.70;67.20;;;;;;5031893;28;20068;-83
2022/09/27 11:28:53;;;;;;;5.55;2.70;;;13.70;67.50;;;;;;5016297;28;20028;-84
2022/09/27 11:31:47;;;;;;;4.85;2.38;;;13.80;66.90;;;;;;5020017;28;20021;-83
2022/09/27 11:34:15;;;;;;;9.77;2.83;;;14.00;67.20;;;;;;5054380;28;20030;-84
2022/09/27 11:36:53;;;;;;;10.40;3.83;;;14.20;66.80;;;;;;5023002;28;20025;-83
2022/09/27 11:39:57;;;;;;;8.32;3.88;;;14.40;67.30;;;;;;5042258;28;20097;-83
2022/09/27 11:42:32;;;;;;;8.10;3.85;;;14.50;67.40;;;;;;5035628;28;20085;-84
2022/09/27 11:45:17;;;;;;;10.88;5.47;;;14.50;66.60;;;;;;5045346;28;20056;-82
2022/09/27 11:48:08;;;;;;;8.43;4.60;;;14.40;67.80;;;;;;5043808;28;20426;-84
2022/09/27 11:51:21;;;;;;;9.55;4.13;;;14.30;68.30;;;;;;5040627;28;20052;-83
2022/09/27 11:53:52;;;;;;;22.02;5.85;;;14.30;68.30;;;;;;4978441;28;20060;-83
2022/09/27 11:56:24;;;;;;;7.57;4.32;;;14.20;68.70;;;;;;5040635;28;20072;-83
2022/09/27 11:59:05;;;;;;;6.00;3.65;;;14.10;68.20;;;;;;5039885;28;20051;-84
2022/09/27 12:01:49;;;;;;;11.85;3.92;;;13.90;67.50;;;;;;5025737;28;20025;-83
2022/09/27 12:04:48;;;;;;;5.43;2.72;;;13.60;67.90;;;;;;5033292;28;20048;-82
2022/09/27 12:07:26;;;;;;;6.28;2.63;;;13.50;67.70;;;;;;5038727;28;20030;-83
2022/09/27 12:09:57;;;;;;;5.57;3.13;;;13.30;68.30;;;;;;5041719;28;20025;-84
2022/09/27 12:12:27;;;;;;;5.68;3.35;;;13.20;69.20;;;;;;5025499;28;20034;-83
2022/09/27 12:15:00;;;;;;;5.55;3.88;;;13.20;70.00;;;;;;5022804;28;20044;-81
2022/09/27 12:17:30;;;;;;;7.70;3.35;;;13.20;70.50;;;;;;5024989;28;20026;-83
2022/09/27 12:20:02;;;;;;;7.28;3.53;;;13.20;70.30;;;;;;5039020;28;20021;-83
2022/09/27 12:22:34;;;;;;;7.90;3.67;;;13.30;70.40;;;;;;5039777;28;20105;-84
2022/09/27 12:25:02;;;;;;;5.00;2.90;;;13.20;70.20;;;;;;5049094;28;20029;-86
2022/09/27 12:27:50;;;;;;;5.18;3.50;;;13.20;69.70;;;;;;5021265;28;20021;-84
2022/09/27 12:30:15;;;;;;;;;;;13.20;69.60;;;;;;5040189;28;20054;-82
2022/09/27 12:33:15;;;;;;;5.50;3.40;;;13.10;70.00;;;;;;5037826;28;20298;-84
2022/09/27 12:35:51;;;;;;;4.22;3.60;;;13.10;69.90;;;;;;5038976;28;20037;-82
2022/09/27 12:38:50;;;;;;;6.35;3.80;;;13.20;69.90;;;;;;5039000;28;20022;-82
2022/09/27 12:41:21;;;;;;;4.15;3.22;;;13.40;69.90;;;;;;5021330;28;20033;-83
2022/09/27 12:43:49;;;;;;;4.57;3.50;;;13.60;69.40;;;;;;5039638;28;20021;-82
2022/09/27 12:46:30;;;;;;;4.53;3.10;;;13.60;68.50;;;;;;5021107;28;20109;-84
2022/09/27 12:48:59;;;;;;;5.80;3.53;;;13.70;68.10;;;;;;5040484;28;20505;-83
2022/09/27 12:51:35;;;;;;;12.23;3.60;;;13.70;68.00;;;;;;5038978;28;20097;-84
2022/09/27 12:54:23;;;;;;;8.35;4.03;;;13.80;68.10;;;;;;5038020;28;20018;-83
2022/09/27 12:56:48;;;;;;;;;;;14.00;67.80;;;;;;5037405;28;20053;-83
2022/09/27 12:59:33;;;;;;;5.45;3.97;;;14.20;67.80;;;;;;5037890;28;20366;-84
2022/09/27 13:02:26;;;;;;;8.07;4.72;;;14.30;67.40;;;;;;5037580;28;20079;-83
2022/09/27 13:05:20;;;;;;;7.47;5.70;;;14.50;67.30;;;;;;5047960;28;20028;-85
2022/09/27 13:07:57;;;;;;;12.20;6.65;;;14.60;67.00;;;;;;5023178;28;20037;-84
2022/09/27 13:10:34;;;;;;;6.53;5.35;;;14.60;66.90;;;;;;5033544;28;20035;-83
2022/09/27 13:13:03;;;;;;;6.75;4.85;;;14.60;66.40;;;;;;5043850;28;20025;-84
2022/09/27 13:15:35;;;;;;;6.20;5.00;;;14.60;65.80;;;;;;5037891;28;20034;-84
2022/09/27 13:18:04;;;;;;;9.88;5.68;;;14.50;65.70;;;;;;5006816;28;20391;-84